sensor_id;sensor_type;location;lat;lon;timestamp;pressure;altitude;pressure_sealevel;temperature;humidity
3524;BME280;1776;53.330;11.498;2023-03-30T00:02:05;24083.13;;;-147.39;73.59
3524;BME280;1776;53.330;11.498;2023-03-30T00:04:30;24060.78;;;-147.39;73.03
3524;BME280;1776;53.330;11.498;2023-03-30T00:06:59;24052.63;;;-147.39;73.46
3524;BME280;1776;53.330;11.498;2023-03-30T00:09:24;24058.75;;;-147.39;73.97
3524;BME280;1776;53.330;11.498;2023-03-30T00:11:56;24022.16;;;-147.39;73.33
3524;BME280;1776;53.330;11.498;2023-03-30T00:14:27;24075.00;;;-147.39;72.98
3524;BME280;1776;53.330;11.498;2023-03-30T00:16:55;24099.41;;;-147.39;72.26
3524;BME280;1776;53.330;11.498;2023-03-30T00:19:21;24068.91;;;-147.39;71.99
3524;BME280;1776;53.330;11.498;2023-03-30T00:21:46;24121.78;;;-147.39;71.78
3524;BME280;1776;53.330;11.498;2023-03-30T00:24:12;24091.28;;;-147.39;71.86
3524;BME280;1776;53.330;11.498;2023-03-30T00:26:37;24062.81;;;-147.39;72.10
3524;BME280;1776;53.330;11.498;2023-03-30T00:29:02;24109.56;;;-147.39;72.00
3524;BME280;1776;53.330;11.498;2023-03-30T00:31:27;24048.56;;;-147.39;72.63
3524;BME280;1776;53.330;11.498;2023-03-30T00:33:53;24081.09;;;-147.39;72.08
3524;BME280;1776;53.330;11.498;2023-03-30T00:36:18;24103.47;;;-147.39;71.77
3524;BME280;1776;53.330;11.498;2023-03-30T00:38:44;24083.13;;;-147.39;72.31
3524;BME280;1776;53.330;11.498;2023-03-30T00:41:10;24081.09;;;-147.39;72.62
3524;BME280;1776;53.330;11.498;2023-03-30T00:43:53;24040.44;;;-147.39;72.87
3524;BME280;1776;53.330;11.498;2023-03-30T00:46:19;24032.31;;;-147.39;73.06
3524;BME280;1776;53.330;11.498;2023-03-30T00:48:44;24046.53;;;-147.39;72.72
3524;BME280;1776;53.330;11.498;2023-03-30T00:51:10;24109.56;;;-147.39;71.55
3524;BME280;1776;53.330;11.498;2023-03-30T00:53:39;24056.72;;;-147.39;71.69
3524;BME280;1776;53.330;11.498;2023-03-30T00:56:07;24093.31;;;-147.39;71.69
3524;BME280;1776;53.330;11.498;2023-03-30T00:58:34;24101.44;;;-147.39;71.44
3524;BME280;1776;53.330;11.498;2023-03-30T01:01:03;24170.56;;;-147.39;71.71
3524;BME280;1776;53.330;11.498;2023-03-30T01:03:32;24085.19;;;-147.39;71.29
3524;BME280;1776;53.330;11.498;2023-03-30T01:06:00;24083.13;;;-147.39;71.25
3524;BME280;1776;53.330;11.498;2023-03-30T01:08:27;24099.41;;;-147.39;72.09
3524;BME280;1776;53.330;11.498;2023-03-30T01:10:57;24044.50;;;-147.39;71.55
3524;BME280;1776;53.330;11.498;2023-03-30T01:13:26;24066.88;;;-147.39;71.65
3524;BME280;1776;53.330;11.498;2023-03-30T01:16:25;24034.34;;;-147.39;72.21
3524;BME280;1776;53.330;11.498;2023-03-30T01:36:24;24003.84;;;-147.39;72.16
3524;BME280;1776;53.330;11.498;2023-03-30T01:42:23;23765.97;;;-147.39;71.64
3524;BME280;1776;53.330;11.498;2023-03-30T01:44:59;24072.97;;;-147.39;70.94
3524;BME280;1776;53.330;11.498;2023-03-30T01:47:40;24093.31;;;-147.39;70.24
3524;BME280;1776;53.330;11.498;2023-03-30T01:50:12;24068.91;;;-147.39;71.13
3524;BME280;1776;53.330;11.498;2023-03-30T01:53:02;24111.59;;;-147.39;70.41
3524;BME280;1776;53.330;11.498;2023-03-30T01:55:51;24166.50;;;-147.39;70.31
3524;BME280;1776;53.330;11.498;2023-03-30T01:58:29;24046.53;;;-147.39;71.26
3524;BME280;1776;53.330;11.498;2023-03-30T02:00:58;24077.03;;;-147.39;71.46
3524;BME280;1776;53.330;11.498;2023-03-30T02:03:30;24064.84;;;-147.39;70.99
3524;BME280;1776;53.330;11.498;2023-03-30T02:06:01;24077.03;;;-147.39;70.75
3524;BME280;1776;53.330;11.498;2023-03-30T02:08:30;24070.94;;;-147.39;70.60
3524;BME280;1776;53.330;11.498;2023-03-30T02:10:57;24077.03;;;-147.39;70.94
3524;BME280;1776;53.330;11.498;2023-03-30T02:13:25;24054.69;;;-147.39;71.11
3524;BME280;1776;53.330;11.498;2023-03-30T02:16:02;24070.94;;;-147.39;71.50
3524;BME280;1776;53.330;11.498;2023-03-30T02:18:28;24040.44;;;-147.39;72.29
3524;BME280;1776;53.330;11.498;2023-03-30T02:20:54;24036.38;;;-147.39;71.84
3524;BME280;1776;53.330;11.498;2023-03-30T02:23:27;24044.50;;;-147.39;71.31
3524;BME280;1776;53.330;11.498;2023-03-30T02:25:55;24060.78;;;-147.39;72.77
3524;BME280;1776;53.330;11.498;2023-03-30T02:28:21;24022.16;;;-147.39;72.57
3524;BME280;1776;53.330;11.498;2023-03-30T02:30:46;24003.84;;;-147.39;73.33
3524;BME280;1776;53.330;11.498;2023-03-30T02:33:20;24003.84;;;-147.39;73.50
3524;BME280;1776;53.330;11.498;2023-03-30T02:41:45;23975.38;;;-147.39;74.41
3524;BME280;1776;53.330;11.498;2023-03-30T02:44:31;23969.28;;;-147.39;73.97
3524;BME280;1776;53.330;11.498;2023-03-30T02:47:11;23973.34;;;-147.39;73.86
3524;BME280;1776;53.330;11.498;2023-03-30T02:49:49;23950.97;;;-147.39;73.50
3524;BME280;1776;53.330;11.498;2023-03-30T02:52:25;23959.13;;;-147.39;73.31
3524;BME280;1776;53.330;11.498;2023-03-30T02:55:18;23955.03;;;-147.39;73.21
3524;BME280;1776;53.330;11.498;2023-03-30T02:58:15;23977.41;;;-147.39;73.19
3524;BME280;1776;53.330;11.498;2023-03-30T03:00:49;23997.75;;;-147.39;73.04
3524;BME280;1776;53.330;11.498;2023-03-30T03:03:21;23965.22;;;-147.39;73.12
3524;BME280;1776;53.330;11.498;2023-03-30T03:05:48;23995.72;;;-147.39;73.24
3524;BME280;1776;53.330;11.498;2023-03-30T03:08:19;23950.97;;;-147.39;73.54
3524;BME280;1776;53.330;11.498;2023-03-30T03:10:45;24050.59;;;-147.39;73.48
3524;BME280;1776;53.330;11.498;2023-03-30T03:13:10;23938.78;;;-147.39;74.34
3524;BME280;1776;53.330;11.498;2023-03-30T03:15:36;23936.75;;;-147.39;74.75
3524;BME280;1776;53.330;11.498;2023-03-30T03:18:02;23918.44;;;-147.39;75.00
3524;BME280;1776;53.330;11.498;2023-03-30T03:20:27;23906.25;;;-147.39;75.21
3524;BME280;1776;53.330;11.498;2023-03-30T03:22:54;23887.94;;;-147.39;75.41
3524;BME280;1776;53.330;11.498;2023-03-30T03:25:20;23942.84;;;-147.39;75.16
3524;BME280;1776;53.330;11.498;2023-03-30T03:27:45;23940.81;;;-147.39;75.41
3524;BME280;1776;53.330;11.498;2023-03-30T03:30:11;23946.91;;;-147.39;75.16
3524;BME280;1776;53.330;11.498;2023-03-30T03:32:36;23928.63;;;-147.39;74.54
3524;BME280;1776;53.330;11.498;2023-03-30T03:35:02;23896.09;;;-147.39;75.23
3524;BME280;1776;53.330;11.498;2023-03-30T03:37:27;23841.19;;;-147.39;74.91
3524;BME280;1776;53.330;11.498;2023-03-30T03:39:52;23887.94;;;-147.39;74.68
3524;BME280;1776;53.330;11.498;2023-03-30T03:42:19;23918.44;;;-147.39;74.45
3524;BME280;1776;53.330;11.498;2023-03-30T03:44:44;23867.63;;;-147.39;74.52
3524;BME280;1776;53.330;11.498;2023-03-30T03:47:09;23847.28;;;-147.39;74.59
3524;BME280;1776;53.330;11.498;2023-03-30T03:49:37;23904.22;;;-147.39;74.44
3524;BME280;1776;53.330;11.498;2023-03-30T03:52:02;23922.50;;;-147.39;74.75
3524;BME280;1776;53.330;11.498;2023-03-30T03:54:28;23861.53;;;-147.39;75.17
3524;BME280;1776;53.330;11.498;2023-03-30T03:56:53;23849.31;;;-147.39;74.99
3524;BME280;1776;53.330;11.498;2023-03-30T03:59:18;23861.53;;;-147.39;75.04
3524;BME280;1776;53.330;11.498;2023-03-30T04:01:43;23879.81;;;-147.39;75.27
3524;BME280;1776;53.330;11.498;2023-03-30T04:04:08;23865.59;;;-147.39;75.45
3524;BME280;1776;53.330;11.498;2023-03-30T04:06:34;23881.84;;;-147.39;75.08
3524;BME280;1776;53.330;11.498;2023-03-30T04:08:59;23845.25;;;-147.39;75.14
3524;BME280;1776;53.330;11.498;2023-03-30T04:11:25;23847.28;;;-147.39;74.80
3524;BME280;1776;53.330;11.498;2023-03-30T04:13:51;23869.66;;;-147.39;74.57
3524;BME280;1776;53.330;11.498;2023-03-30T04:16:16;23831.03;;;-147.39;75.08
3524;BME280;1776;53.330;11.498;2023-03-30T04:18:41;23824.94;;;-147.39;75.64
3524;BME280;1776;53.330;11.498;2023-03-30T04:21:07;23831.03;;;-147.39;76.29
3524;BME280;1776;53.330;11.498;2023-03-30T04:23:37;23833.06;;;-147.39;75.76
3524;BME280;1776;53.330;11.498;2023-03-30T04:26:05;23808.66;;;-147.39;75.83
3524;BME280;1776;53.330;11.498;2023-03-30T04:28:32;23774.09;;;-147.39;76.69
3524;BME280;1776;53.330;11.498;2023-03-30T04:31:04;23776.13;;;-147.39;77.25
3524;BME280;1776;53.330;11.498;2023-03-30T04:33:30;23814.75;;;-147.39;76.61
3524;BME280;1776;53.330;11.498;2023-03-30T04:35:59;23806.63;;;-147.39;76.05
3524;BME280;1776;53.330;11.498;2023-03-30T04:38:25;23790.38;;;-147.39;75.98
3524;BME280;1776;53.330;11.498;2023-03-30T04:40:51;23776.13;;;-147.39;76.02
3524;BME280;1776;53.330;11.498;2023-03-30T04:43:18;23814.75;;;-147.39;76.51
3524;BME280;1776;53.330;11.498;2023-03-30T04:45:52;23808.66;;;-147.39;76.29
3524;BME280;1776;53.330;11.498;2023-03-30T04:48:19;23798.50;;;-147.39;75.63
3524;BME280;1776;53.330;11.498;2023-03-30T04:50:46;23784.25;;;-147.39;75.38
3524;BME280;1776;53.330;11.498;2023-03-30T04:53:12;23814.75;;;-147.39;75.40
3524;BME280;1776;53.330;11.498;2023-03-30T04:55:39;23780.19;;;-147.39;75.64
3524;BME280;1776;53.330;11.498;2023-03-30T04:58:04;23818.81;;;-147.39;75.06
3524;BME280;1776;53.330;11.498;2023-03-30T05:00:30;23751.72;;;-147.39;75.73
3524;BME280;1776;53.330;11.498;2023-03-30T05:02:56;23800.53;;;-147.39;75.76
3524;BME280;1776;53.330;11.498;2023-03-30T05:05:21;23770.03;;;-147.39;75.52
3524;BME280;1776;53.330;11.498;2023-03-30T05:07:47;23816.78;;;-147.39;75.29
3524;BME280;1776;53.330;11.498;2023-03-30T05:10:12;23790.38;;;-147.39;75.30
3524;BME280;1776;53.330;11.498;2023-03-30T05:12:38;23824.94;;;-147.39;75.59
3524;BME280;1776;53.330;11.498;2023-03-30T05:15:04;23768.00;;;-147.39;75.01
3524;BME280;1776;53.330;11.498;2023-03-30T05:17:32;23802.56;;;-147.39;75.52
3524;BME280;1776;53.330;11.498;2023-03-30T05:19:58;23755.81;;;-147.39;76.22
3524;BME280;1776;53.330;11.498;2023-03-30T05:22:23;23737.50;;;-147.39;76.56
3524;BME280;1776;53.330;11.498;2023-03-30T05:24:49;23739.53;;;-147.39;76.44
3524;BME280;1776;53.330;11.498;2023-03-30T05:27:16;23776.13;;;-147.39;75.65
3524;BME280;1776;53.330;11.498;2023-03-30T05:29:41;23816.78;;;-147.39;75.05
3524;BME280;1776;53.330;11.498;2023-03-30T05:32:06;23776.13;;;-147.39;75.12
3524;BME280;1776;53.330;11.498;2023-03-30T05:34:31;23765.97;;;-147.39;75.06
3524;BME280;1776;53.330;11.498;2023-03-30T05:36:57;23780.19;;;-147.39;75.29
3524;BME280;1776;53.330;11.498;2023-03-30T05:39:22;23737.50;;;-147.39;75.30
3524;BME280;1776;53.330;11.498;2023-03-30T05:41:47;23745.63;;;-147.39;75.37
3524;BME280;1776;53.330;11.498;2023-03-30T05:44:13;23761.91;;;-147.39;75.31
3524;BME280;1776;53.330;11.498;2023-03-30T05:46:38;23745.63;;;-147.39;75.79
3524;BME280;1776;53.330;11.498;2023-03-30T05:49:03;23731.41;;;-147.39;75.89
3524;BME280;1776;53.330;11.498;2023-03-30T05:51:29;23749.69;;;-147.39;76.44
3524;BME280;1776;53.330;11.498;2023-03-30T05:53:54;23686.69;;;-147.39;76.15
3524;BME280;1776;53.330;11.498;2023-03-30T05:56:19;23686.69;;;-147.39;76.60
3524;BME280;1776;53.330;11.498;2023-03-30T05:58:45;23719.19;;;-147.39;77.34
3524;BME280;1776;53.330;11.498;2023-03-30T06:01:11;23650.09;;;-147.39;77.10
3524;BME280;1776;53.330;11.498;2023-03-30T06:03:37;23670.41;;;-147.39;77.21
3524;BME280;1776;53.330;11.498;2023-03-30T06:06:04;23658.22;;;-147.39;77.25
3524;BME280;1776;53.330;11.498;2023-03-30T06:08:29;23674.47;;;-147.39;77.62
3524;BME280;1776;53.330;11.498;2023-03-30T06:10:55;23656.19;;;-147.39;77.32
3524;BME280;1776;53.330;11.498;2023-03-30T06:13:21;23686.69;;;-147.39;77.41
3524;BME280;1776;53.330;11.498;2023-03-30T06:15:47;23715.13;;;-147.39;77.13
3524;BME280;1776;53.330;11.498;2023-03-30T06:18:12;23666.34;;;-147.39;77.32
3524;BME280;1776;53.330;11.498;2023-03-30T06:20:37;23668.38;;;-147.39;77.24
3524;BME280;1776;53.330;11.498;2023-03-30T06:23:03;23682.59;;;-147.39;76.92
3524;BME280;1776;53.330;11.498;2023-03-30T06:25:28;23674.47;;;-147.39;77.19
3524;BME280;1776;53.330;11.498;2023-03-30T06:27:54;23690.75;;;-147.39;76.77
3524;BME280;1776;53.330;11.498;2023-03-30T06:30:20;23664.31;;;-147.39;76.89
3524;BME280;1776;53.330;11.498;2023-03-30T06:32:45;23662.28;;;-147.39;76.85
3524;BME280;1776;53.330;11.498;2023-03-30T06:35:10;23698.88;;;-147.39;77.09
3524;BME280;1776;53.330;11.498;2023-03-30T06:37:37;23674.47;;;-147.39;76.92
3524;BME280;1776;53.330;11.498;2023-03-30T06:40:03;23654.16;;;-147.39;76.41
3524;BME280;1776;53.330;11.498;2023-03-30T06:42:33;23698.88;;;-147.39;76.31
3524;BME280;1776;53.330;11.498;2023-03-30T06:44:58;23676.50;;;-147.39;76.23
3524;BME280;1776;53.330;11.498;2023-03-30T06:47:23;23676.50;;;-147.39;76.40
3524;BME280;1776;53.330;11.498;2023-03-30T06:49:49;23696.84;;;-147.39;76.25
3524;BME280;1776;53.330;11.498;2023-03-30T06:52:14;23662.28;;;-147.39;76.31
3524;BME280;1776;53.330;11.498;2023-03-30T06:54:39;23702.94;;;-147.39;76.19
3524;BME280;1776;53.330;11.498;2023-03-30T06:57:05;23682.59;;;-147.39;76.11
3524;BME280;1776;53.330;11.498;2023-03-30T06:59:30;23723.28;;;-147.39;76.14
3524;BME280;1776;53.330;11.498;2023-03-30T07:01:57;23684.63;;;-147.39;76.06
3524;BME280;1776;53.330;11.498;2023-03-30T07:04:23;23702.94;;;-147.39;75.88
3524;BME280;1776;53.330;11.498;2023-03-30T07:06:48;23696.84;;;-147.39;75.76
3524;BME280;1776;53.330;11.498;2023-03-30T07:09:13;23696.84;;;-147.39;75.97
3524;BME280;1776;53.330;11.498;2023-03-30T07:11:38;23690.75;;;-147.39;75.70
3524;BME280;1776;53.330;11.498;2023-03-30T07:14:04;23688.72;;;-147.39;75.56
3524;BME280;1776;53.330;11.498;2023-03-30T07:16:29;23684.63;;;-147.39;75.39
3524;BME280;1776;53.330;11.498;2023-03-30T07:18:55;23727.34;;;-147.39;75.11
3524;BME280;1776;53.330;11.498;2023-03-30T07:21:20;23704.97;;;-147.39;75.08
3524;BME280;1776;53.330;11.498;2023-03-30T07:23:45;23711.06;;;-147.39;75.17
3524;BME280;1776;53.330;11.498;2023-03-30T07:26:11;23751.72;;;-147.39;75.12
3524;BME280;1776;53.330;11.498;2023-03-30T07:28:36;23765.97;;;-147.39;74.62
3524;BME280;1776;53.330;11.498;2023-03-30T07:31:07;23719.19;;;-147.39;74.27
3524;BME280;1776;53.330;11.498;2023-03-30T07:33:32;23765.97;;;-147.39;74.08
3524;BME280;1776;53.330;11.498;2023-03-30T07:35:58;23719.19;;;-147.39;74.34
3524;BME280;1776;53.330;11.498;2023-03-30T07:38:23;23763.94;;;-147.39;73.86
3524;BME280;1776;53.330;11.498;2023-03-30T07:40:48;23802.56;;;-147.39;73.63
3524;BME280;1776;53.330;11.498;2023-03-30T07:43:14;23774.09;;;-147.39;73.53
3524;BME280;1776;53.330;11.498;2023-03-30T07:45:39;23786.28;;;-147.39;73.65
3524;BME280;1776;53.330;11.498;2023-03-30T07:48:04;23782.22;;;-147.39;73.79
3524;BME280;1776;53.330;11.498;2023-03-30T07:50:30;23806.63;;;-147.39;73.71
3524;BME280;1776;53.330;11.498;2023-03-30T07:52:55;23780.19;;;-147.39;73.70
3524;BME280;1776;53.330;11.498;2023-03-30T07:55:21;23839.16;;;-147.39;73.79
3524;BME280;1776;53.330;11.498;2023-03-30T07:57:46;23776.13;;;-147.39;73.85
3524;BME280;1776;53.330;11.498;2023-03-30T08:00:13;23800.53;;;-147.39;73.42
3524;BME280;1776;53.330;11.498;2023-03-30T08:02:38;23786.28;;;-147.39;73.67
3524;BME280;1776;53.330;11.498;2023-03-30T08:05:04;23790.38;;;-147.39;73.82
3524;BME280;1776;53.330;11.498;2023-03-30T08:07:30;23784.25;;;-147.39;73.81
3524;BME280;1776;53.330;11.498;2023-03-30T08:09:56;23792.41;;;-147.39;74.09
3524;BME280;1776;53.330;11.498;2023-03-30T08:12:21;23829.00;;;-147.39;73.58
3524;BME280;1776;53.330;11.498;2023-03-30T08:14:46;23829.00;;;-147.39;73.42
3524;BME280;1776;53.330;11.498;2023-03-30T08:17:12;23782.22;;;-147.39;73.06
3524;BME280;1776;53.330;11.498;2023-03-30T08:19:37;23816.78;;;-147.39;73.11
3524;BME280;1776;53.330;11.498;2023-03-30T08:22:02;23778.16;;;-147.39;73.10
3524;BME280;1776;53.330;11.498;2023-03-30T08:24:28;23845.25;;;-147.39;72.80
3524;BME280;1776;53.330;11.498;2023-03-30T08:26:53;23810.69;;;-147.39;72.62
3524;BME280;1776;53.330;11.498;2023-03-30T08:29:19;23820.84;;;-147.39;72.70
3524;BME280;1776;53.330;11.498;2023-03-30T08:31:44;23804.59;;;-147.39;72.27
3524;BME280;1776;53.330;11.498;2023-03-30T08:34:10;23837.13;;;-147.39;72.24
3524;BME280;1776;53.330;11.498;2023-03-30T08:36:35;23835.09;;;-147.39;71.69
3524;BME280;1776;53.330;11.498;2023-03-30T08:39:01;23841.19;;;-147.39;71.99
3524;BME280;1776;53.330;11.498;2023-03-30T08:43:56;23926.59;;;-147.39;72.19
3524;BME280;1776;53.330;11.498;2023-03-30T08:46:22;23843.22;;;-147.39;71.97
3524;BME280;1776;53.330;11.498;2023-03-30T08:48:49;23857.47;;;-147.39;71.77
3524;BME280;1776;53.330;11.498;2023-03-30T08:51:22;23863.56;;;-147.39;71.85
3524;BME280;1776;53.330;11.498;2023-03-30T08:56:38;23900.16;;;-147.39;71.61
3524;BME280;1776;53.330;11.498;2023-03-30T08:59:27;23890.00;;;-147.39;71.45
3524;BME280;1776;53.330;11.498;2023-03-30T09:02:16;23869.66;;;-147.39;71.19
3524;BME280;1776;53.330;11.498;2023-03-30T09:05:03;23924.56;;;-147.39;70.72
3524;BME280;1776;53.330;11.498;2023-03-30T09:07:46;23938.78;;;-147.39;70.79
3524;BME280;1776;53.330;11.498;2023-03-30T09:10:14;23938.78;;;-147.39;70.85
3524;BME280;1776;53.330;11.498;2023-03-30T09:12:43;23932.69;;;-147.39;71.00
3524;BME280;1776;53.330;11.498;2023-03-30T09:15:35;23926.59;;;-147.39;71.69
3524;BME280;1776;53.330;11.498;2023-03-30T09:18:13;23896.09;;;-147.39;72.53
3524;BME280;1776;53.330;11.498;2023-03-30T09:20:39;23904.22;;;-147.39;73.63
3524;BME280;1776;53.330;11.498;2023-03-30T09:23:11;23916.41;;;-147.39;73.06
3524;BME280;1776;53.330;11.498;2023-03-30T09:28:30;23916.41;;;-147.39;73.02
3524;BME280;1776;53.330;11.498;2023-03-30T09:31:22;23940.81;;;-147.39;72.62
3524;BME280;1776;53.330;11.498;2023-03-30T09:34:04;23953.00;;;-147.39;72.36
3524;BME280;1776;53.330;11.498;2023-03-30T09:36:39;23973.34;;;-147.39;72.47
3524;BME280;1776;53.330;11.498;2023-03-30T09:39:16;23993.69;;;-147.39;72.03
3524;BME280;1776;53.330;11.498;2023-03-30T09:41:55;24005.88;;;-147.39;71.18
3524;BME280;1776;53.330;11.498;2023-03-30T09:44:31;24026.22;;;-147.39;70.66
3524;BME280;1776;53.330;11.498;2023-03-30T09:46:58;24038.41;;;-147.39;70.56
3524;BME280;1776;53.330;11.498;2023-03-30T09:49:37;24048.56;;;-147.39;70.23
3524;BME280;1776;53.330;11.498;2023-03-30T09:52:05;24052.63;;;-147.39;70.30
3524;BME280;1776;53.330;11.498;2023-03-30T09:54:35;24119.75;;;-147.39;69.23
3524;BME280;1776;53.330;11.498;2023-03-30T09:57:02;24131.94;;;-147.39;68.70
3524;BME280;1776;53.330;11.498;2023-03-30T09:59:36;24146.16;;;-147.39;67.41
3524;BME280;1776;53.330;11.498;2023-03-30T10:02:28;24148.22;;;-147.39;67.35
3524;BME280;1776;53.330;11.498;2023-03-30T10:04:57;24201.06;;;-147.39;67.09
3524;BME280;1776;53.330;11.498;2023-03-30T10:07:36;24227.50;;;-147.39;66.53
3524;BME280;1776;53.330;11.498;2023-03-30T10:12:48;24314.94;;;-147.39;65.36
3524;BME280;1776;53.330;11.498;2023-03-30T10:15:16;24323.06;;;-147.39;64.35
3524;BME280;1776;53.330;11.498;2023-03-30T10:17:44;24298.66;;;-147.39;65.02
3524;BME280;1776;53.330;11.498;2023-03-30T10:20:28;24337.31;;;-147.39;64.37
3524;BME280;1776;53.330;11.498;2023-03-30T10:23:11;24339.34;;;-147.39;64.56
3524;BME280;1776;53.330;11.498;2023-03-30T10:25:39;24308.84;;;-147.39;64.39
3524;BME280;1776;53.330;11.498;2023-03-30T10:28:15;23950.97;;;-147.39;63.94
3524;BME280;1776;53.330;11.498;2023-03-30T10:30:51;24375.94;;;-147.39;62.38
3524;BME280;1776;53.330;11.498;2023-03-30T10:33:18;24457.28;;;-147.39;62.08
3524;BME280;1776;53.330;11.498;2023-03-30T10:35:46;24538.63;;;-147.39;61.40
3524;BME280;1776;53.330;11.498;2023-03-30T10:38:14;24556.91;;;-147.39;60.48
3524;BME280;1776;53.330;11.498;2023-03-30T10:40:41;24565.06;;;-147.39;60.38
3524;BME280;1776;53.330;11.498;2023-03-30T10:43:13;24524.38;;;-147.39;60.34
3524;BME280;1776;53.330;11.498;2023-03-30T10:45:43;24532.50;;;-147.39;60.76
3524;BME280;1776;53.330;11.498;2023-03-30T10:51:16;24593.53;;;-147.39;59.98
3524;BME280;1776;53.330;11.498;2023-03-30T10:54:05;24532.50;;;-147.39;60.12
3524;BME280;1776;53.330;11.498;2023-03-30T11:02:26;24628.09;;;-147.39;59.38
3524;BME280;1776;53.330;11.498;2023-03-30T11:05:05;24654.53;;;-147.39;59.29
3524;BME280;1776;53.330;11.498;2023-03-30T11:07:43;24648.44;;;-147.39;59.57
3524;BME280;1776;53.330;11.498;2023-03-30T11:10:16;24565.06;;;-147.39;59.86
3524;BME280;1776;53.330;11.498;2023-03-30T11:12:48;24569.13;;;-147.39;60.17
3524;BME280;1776;53.330;11.498;2023-03-30T11:15:22;24636.22;;;-147.39;60.25
3524;BME280;1776;53.330;11.498;2023-03-30T11:18:09;24622.00;;;-147.39;59.82
3524;BME280;1776;53.330;11.498;2023-03-30T11:20:48;24595.56;;;-147.39;59.61
3524;BME280;1776;53.330;11.498;2023-03-30T11:25:59;24617.94;;;-147.39;59.34
3524;BME280;1776;53.330;11.498;2023-03-30T11:28:46;24634.19;;;-147.39;59.64
3524;BME280;1776;53.330;11.498;2023-03-30T11:31:29;24711.47;;;-147.39;59.30
3524;BME280;1776;53.330;11.498;2023-03-30T11:34:28;24723.66;;;-147.39;58.70
3524;BME280;1776;53.330;11.498;2023-03-30T11:37:29;24774.50;;;-147.39;56.73
3524;BME280;1776;53.330;11.498;2023-03-30T11:40:21;24798.91;;;-147.39;57.23
3524;BME280;1776;53.330;11.498;2023-03-30T11:42:48;24904.66;;;-147.39;55.89
3524;BME280;1776;53.330;11.498;2023-03-30T11:45:41;24851.78;;;-147.39;55.52
3524;BME280;1776;53.330;11.498;2023-03-30T11:54:25;24961.59;;;-147.39;54.40
3524;BME280;1776;53.330;11.498;2023-03-30T11:57:19;24992.13;;;-147.39;53.74
3524;BME280;1776;53.330;11.498;2023-03-30T12:02:24;24904.66;;;-147.39;54.70
3524;BME280;1776;53.330;11.498;2023-03-30T12:05:00;24898.56;;;-147.39;55.24
3524;BME280;1776;53.330;11.498;2023-03-30T12:10:17;24892.47;;;-147.39;55.85
3524;BME280;1776;53.330;11.498;2023-03-30T12:12:44;24908.72;;;-147.39;55.84
3524;BME280;1776;53.330;11.498;2023-03-30T12:15:39;24876.19;;;-147.39;55.63
3524;BME280;1776;53.330;11.498;2023-03-30T12:21:04;24947.38;;;-147.39;53.72
3524;BME280;1776;53.330;11.498;2023-03-30T12:23:42;25020.59;;;-147.39;53.60
3524;BME280;1776;53.330;11.498;2023-03-30T12:26:25;25051.09;;;-147.39;51.80
3524;BME280;1776;53.330;11.498;2023-03-30T12:28:57;25040.94;;;-147.39;52.05
3524;BME280;1776;53.330;11.498;2023-03-30T12:31:50;25018.56;;;-147.39;51.11
3524;BME280;1776;53.330;11.498;2023-03-30T12:34:32;25014.47;;;-147.39;51.15
3524;BME280;1776;53.330;11.498;2023-03-30T12:39:35;25071.44;;;-147.39;50.79
3524;BME280;1776;53.330;11.498;2023-03-30T12:47:30;25042.97;;;-147.39;52.20
3524;BME280;1776;53.330;11.498;2023-03-30T12:50:11;25032.78;;;-147.39;53.04
3524;BME280;1776;53.330;11.498;2023-03-30T12:52:53;24998.22;;;-147.39;52.74
3524;BME280;1776;53.330;11.498;2023-03-30T12:55:38;25012.44;;;-147.39;52.84
3524;BME280;1776;53.330;11.498;2023-03-30T12:58:42;24981.94;;;-147.39;52.31
3524;BME280;1776;53.330;11.498;2023-03-30T13:04:08;25073.47;;;-147.39;52.11
3524;BME280;1776;53.330;11.498;2023-03-30T13:06:37;25095.84;;;-147.39;51.70
3524;BME280;1776;53.330;11.498;2023-03-30T13:14:43;25189.38;;;-147.39;50.36
3524;BME280;1776;53.330;11.498;2023-03-30T13:17:18;25240.25;;;-147.39;48.77
3524;BME280;1776;53.330;11.498;2023-03-30T13:19:46;25181.25;;;-147.39;49.58
3524;BME280;1776;53.330;11.498;2023-03-30T13:22:30;25177.19;;;-147.39;49.06
3524;BME280;1776;53.330;11.498;2023-03-30T13:25:23;25173.13;;;-147.39;49.69
3524;BME280;1776;53.330;11.498;2023-03-30T13:27:50;25167.03;;;-147.39;50.08
3524;BME280;1776;53.330;11.498;2023-03-30T13:30:17;25252.44;;;-147.39;48.90
3524;BME280;1776;53.330;11.498;2023-03-30T13:35:46;25171.09;;;-147.39;50.52
3524;BME280;1776;53.330;11.498;2023-03-30T13:43:51;24768.41;;;-147.39;59.89
3524;BME280;1776;53.330;11.498;2023-03-30T13:51:40;24479.66;;;-147.39;66.13
3524;BME280;1776;53.330;11.498;2023-03-30T13:54:18;24438.97;;;-147.39;67.45
3524;BME280;1776;53.330;11.498;2023-03-30T13:56:48;24443.03;;;-147.39;67.80
3524;BME280;1776;53.330;11.498;2023-03-30T13:59:20;24347.47;;;-147.39;69.23
3524;BME280;1776;53.330;11.498;2023-03-30T14:01:56;24365.78;;;-147.39;68.81
3524;BME280;1776;53.330;11.498;2023-03-30T14:04:27;24339.34;;;-147.39;68.74
3524;BME280;1776;53.330;11.498;2023-03-30T14:06:53;24298.66;;;-147.39;69.90
3524;BME280;1776;53.330;11.498;2023-03-30T14:09:21;24321.03;;;-147.39;69.57
3524;BME280;1776;53.330;11.498;2023-03-30T14:11:58;24300.72;;;-147.39;69.87
3524;BME280;1776;53.330;11.498;2023-03-30T14:14:26;24286.47;;;-147.39;69.74
3524;BME280;1776;53.330;11.498;2023-03-30T14:16:56;24290.53;;;-147.39;69.92
3524;BME280;1776;53.330;11.498;2023-03-30T14:19:25;24321.03;;;-147.39;70.12
3524;BME280;1776;53.330;11.498;2023-03-30T14:22:15;24390.19;;;-147.39;69.30
3524;BME280;1776;53.330;11.498;2023-03-30T14:24:58;24477.63;;;-147.39;66.91
3524;BME280;1776;53.330;11.498;2023-03-30T14:27:23;24432.88;;;-147.39;66.54
3524;BME280;1776;53.330;11.498;2023-03-30T14:29:50;24436.94;;;-147.39;67.27
3524;BME280;1776;53.330;11.498;2023-03-30T14:32:18;24420.69;;;-147.39;66.02
3524;BME280;1776;53.330;11.498;2023-03-30T14:34:50;24400.34;;;-147.39;67.50
3524;BME280;1776;53.330;11.498;2023-03-30T14:37:17;24436.94;;;-147.39;67.08
3524;BME280;1776;53.330;11.498;2023-03-30T14:39:45;24345.44;;;-147.39;68.51
3524;BME280;1776;53.330;11.498;2023-03-30T14:42:16;24353.56;;;-147.39;68.50